createdAt,value
2023-04-20T00:02:15.556Z,8.90
2023-04-20T00:04:42.615Z,9.55
2023-04-20T00:07:09.332Z,11.15
2023-04-20T00:09:35.916Z,8.60
2023-04-20T00:12:02.570Z,6.00
2023-04-20T00:14:29.267Z,13.30
2023-04-20T00:16:56.074Z,8.80
2023-04-20T00:19:23.242Z,9.63
2023-04-20T00:21:50.000Z,9.63
2023-04-20T00:24:16.604Z,7.78
2023-04-20T00:26:43.397Z,9.48
2023-04-20T00:29:10.095Z,15.13
2023-04-20T00:31:37.075Z,9.30
2023-04-20T00:34:03.598Z,14.20
2023-04-20T00:36:30.190Z,11.35
2023-04-20T00:38:58.913Z,10.30
2023-04-20T00:41:28.588Z,13.18
2023-04-20T00:43:55.353Z,13.50
2023-04-20T00:46:22.064Z,8.82
2023-04-20T00:48:51.786Z,11.20
2023-04-20T00:51:19.931Z,17.42
2023-04-20T00:53:46.659Z,18.30
2023-04-20T00:56:14.358Z,11.95
2023-04-20T00:58:42.271Z,16.77
2023-04-20T01:01:10.600Z,13.38
2023-04-20T01:03:41.578Z,8.23
2023-04-20T01:06:08.836Z,13.40
2023-04-20T01:08:35.570Z,9.13
2023-04-20T01:11:03.903Z,8.00
2023-04-20T01:13:30.638Z,8.20
2023-04-20T01:16:00.336Z,10.20
2023-04-20T01:18:27.677Z,8.80
2023-04-20T01:20:54.250Z,9.98
2023-04-20T01:23:20.935Z,10.30
2023-04-20T01:25:47.520Z,9.43
2023-04-20T01:28:14.596Z,8.18
2023-04-20T01:30:42.184Z,13.18
2023-04-20T01:33:08.807Z,11.52
2023-04-20T01:35:35.549Z,7.22
2023-04-20T01:38:02.139Z,10.32
2023-04-20T01:40:30.595Z,8.10
2023-04-20T01:42:59.837Z,10.48
2023-04-20T01:45:26.515Z,9.60
2023-04-20T01:47:53.125Z,6.30
2023-04-20T01:50:19.941Z,11.18
2023-04-20T01:52:46.678Z,7.03
2023-04-20T01:55:19.572Z,13.27
2023-04-20T01:57:47.219Z,18.33
2023-04-20T02:00:14.295Z,9.73
2023-04-20T02:02:40.931Z,14.40
2023-04-20T02:05:08.130Z,9.95
2023-04-20T02:07:34.669Z,12.93
2023-04-20T02:10:01.979Z,10.07
2023-04-20T02:12:29.135Z,10.00
2023-04-20T02:14:55.785Z,8.32
2023-04-20T02:17:22.410Z,16.00
2023-04-20T02:19:49.026Z,10.48
2023-04-20T02:22:16.077Z,12.18
2023-04-20T02:24:43.834Z,8.98
2023-04-20T02:27:10.882Z,11.00
2023-04-20T02:29:39.716Z,7.45
2023-04-20T02:32:07.809Z,10.88
2023-04-20T02:34:34.400Z,9.00
2023-04-20T02:37:01.090Z,5.88
2023-04-20T02:39:27.651Z,10.27
2023-04-20T02:41:54.529Z,10.45
2023-04-20T02:44:21.298Z,6.97
2023-04-20T02:46:49.144Z,12.38
2023-04-20T02:49:17.102Z,13.85
2023-04-20T02:51:44.815Z,6.07
2023-04-20T02:54:11.911Z,7.07
2023-04-20T02:56:39.373Z,9.77
2023-04-20T02:59:09.401Z,8.82
2023-04-20T03:01:42.261Z,6.88
2023-04-20T03:04:19.424Z,11.68
2023-04-20T03:06:54.233Z,9.65
2023-04-20T03:09:27.046Z,9.18
2023-04-20T03:12:14.396Z,7.38
2023-04-20T03:14:55.795Z,10.00
2023-04-20T03:17:31.292Z,13.10
2023-04-20T03:19:58.644Z,7.38
2023-04-20T03:22:25.924Z,6.32
2023-04-20T03:27:42.381Z,7.03
2023-04-20T03:30:13.004Z,10.25
2023-04-20T03:32:42.195Z,8.32
2023-04-20T03:35:11.654Z,11.27
2023-04-20T03:37:39.797Z,8.93
2023-04-20T03:40:25.590Z,8.52
2023-04-20T03:42:53.379Z,11.20
2023-04-20T03:45:21.657Z,6.28
2023-04-20T03:47:49.437Z,7.18
2023-04-20T03:50:16.254Z,7.93
2023-04-20T03:52:42.975Z,10.50
2023-04-20T03:55:10.701Z,9.75
2023-04-20T03:57:41.413Z,7.18
2023-04-20T04:00:10.715Z,10.00
2023-04-20T04:02:46.889Z,11.10
2023-04-20T04:05:18.572Z,8.65
2023-04-20T04:07:45.390Z,10.73
2023-04-20T04:10:13.179Z,5.40
2023-04-20T04:12:39.986Z,7.63
2023-04-20T04:15:07.869Z,11.27
2023-04-20T04:17:40.040Z,6.65
2023-04-20T04:20:11.354Z,8.93
2023-04-20T04:25:27.452Z,9.75
2023-04-20T04:27:54.853Z,9.80
2023-04-20T04:30:22.183Z,9.38
2023-04-20T04:32:48.994Z,10.88
2023-04-20T04:35:18.036Z,7.90
2023-04-20T04:37:46.130Z,10.88
2023-04-20T04:40:12.888Z,10.98
2023-04-20T04:42:40.751Z,7.25
2023-04-20T04:45:10.299Z,15.07
2023-04-20T04:47:42.107Z,9.45
2023-04-20T04:50:10.497Z,9.32
2023-04-20T04:52:37.230Z,10.85
2023-04-20T04:55:08.112Z,8.30
2023-04-20T04:57:35.011Z,8.48
2023-04-20T05:00:09.445Z,12.40
2023-04-20T05:02:36.382Z,11.75
2023-04-20T05:05:07.542Z,11.18
2023-04-20T05:07:36.283Z,8.43
2023-04-20T05:10:03.053Z,11.32
2023-04-20T05:12:30.224Z,10.20
2023-04-20T05:14:56.793Z,18.08
2023-04-20T05:17:23.450Z,9.57
2023-04-20T05:19:50.265Z,10.55
2023-04-20T05:22:17.124Z,9.55
2023-04-20T05:24:43.789Z,11.23
2023-04-20T05:27:11.347Z,13.95
2023-04-20T05:29:40.789Z,14.32
2023-04-20T05:32:08.300Z,18.50
2023-04-20T05:34:35.298Z,16.27
2023-04-20T05:37:05.281Z,18.50
2023-04-20T05:39:31.813Z,16.50
2023-04-20T05:41:58.439Z,12.98
2023-04-20T05:44:25.009Z,15.02
2023-04-20T05:46:54.614Z,12.60
2023-04-20T05:49:21.524Z,10.85
2023-04-20T05:51:48.253Z,10.43
2023-04-20T05:54:14.971Z,12.02
2023-04-20T05:56:41.565Z,11.30
2023-04-20T05:59:08.665Z,10.48
2023-04-20T06:01:38.093Z,11.57
2023-04-20T06:04:05.827Z,11.77
2023-04-20T06:06:32.781Z,10.27
2023-04-20T06:08:59.440Z,16.25
2023-04-20T06:11:26.081Z,11.57
2023-04-20T06:13:52.624Z,9.88
2023-04-20T06:16:19.234Z,12.93
2023-04-20T06:18:45.900Z,11.50
2023-04-20T06:21:12.508Z,15.00
2023-04-20T06:23:39.223Z,13.38
2023-04-20T06:26:08.656Z,10.93
2023-04-20T06:28:36.115Z,8.77
2023-04-20T06:31:03.838Z,10.93
2023-04-20T06:33:30.924Z,11.88
2023-04-20T06:35:58.152Z,9.18
2023-04-20T06:38:25.480Z,13.07
2023-04-20T06:40:52.175Z,9.98
2023-04-20T06:43:19.063Z,10.77
2023-04-20T06:45:45.816Z,10.13
2023-04-20T06:48:30.183Z,10.60
2023-04-20T06:53:44.354Z,12.05
2023-04-20T06:56:12.181Z,12.65
2023-04-20T06:58:38.812Z,14.50
2023-04-20T07:01:05.534Z,14.95
2023-04-20T07:03:33.913Z,14.43
2023-04-20T07:06:01.042Z,8.70
2023-04-20T07:08:28.330Z,12.35
2023-04-20T07:10:54.924Z,14.93
2023-04-20T07:13:21.515Z,11.95
2023-04-20T07:15:48.281Z,13.38
2023-04-20T07:18:14.861Z,11.20
2023-04-20T07:20:41.505Z,14.13
2023-04-20T07:23:08.137Z,10.73
2023-04-20T07:25:34.728Z,11.68
2023-04-20T07:28:01.355Z,13.85
2023-04-20T07:30:28.099Z,12.65
2023-04-20T07:32:57.470Z,9.77
2023-04-20T07:35:24.469Z,13.02
2023-04-20T07:37:51.091Z,9.65
2023-04-20T07:40:17.822Z,12.90
2023-04-20T07:42:44.756Z,15.50
2023-04-20T07:45:13.024Z,11.77
2023-04-20T07:47:39.903Z,13.48
2023-04-20T07:50:07.668Z,14.50
2023-04-20T07:52:34.498Z,13.98
2023-04-20T07:55:01.840Z,15.65
2023-04-20T07:57:29.298Z,13.95
2023-04-20T07:59:55.946Z,17.98
2023-04-20T08:02:22.689Z,14.63
2023-04-20T08:04:50.160Z,17.83
2023-04-20T08:07:17.778Z,13.85
2023-04-20T08:09:44.571Z,14.52
2023-04-20T08:12:11.828Z,18.00
2023-04-20T08:14:38.707Z,13.75
2023-04-20T08:17:05.469Z,12.27
2023-04-20T08:19:32.171Z,14.52
2023-04-20T08:22:00.103Z,15.73
2023-04-20T08:24:27.299Z,13.82
2023-04-20T08:26:53.938Z,13.85
2023-04-20T08:29:20.902Z,17.65
2023-04-20T08:31:49.169Z,15.93
2023-04-20T08:34:17.603Z,15.25
2023-04-20T08:36:44.713Z,18.83
2023-04-20T08:39:19.593Z,19.55
2023-04-20T08:41:47.881Z,19.13
2023-04-20T08:44:14.787Z,16.92
2023-04-20T08:46:45.606Z,13.50
2023-04-20T08:49:12.930Z,15.60
2023-04-20T08:51:40.048Z,12.55
2023-04-20T08:54:06.894Z,12.85
2023-04-20T08:56:40.676Z,14.38
2023-04-20T08:59:12.928Z,12.95
2023-04-20T09:01:43.156Z,14.25
2023-04-20T09:04:28.884Z,14.30
2023-04-20T09:06:56.447Z,15.23
2023-04-20T09:09:25.769Z,18.33
2023-04-20T09:12:09.107Z,17.55
2023-04-20T09:14:46.083Z,14.20
2023-04-20T09:17:31.130Z,13.13
2023-04-20T09:19:57.790Z,13.48
2023-04-20T09:22:35.571Z,16.30
2023-04-20T09:25:23.325Z,13.25
2023-04-20T09:27:57.824Z,13.40
2023-04-20T09:30:24.843Z,14.55
2023-04-20T09:33:04.293Z,14.45
2023-04-20T09:35:31.557Z,12.63
2023-04-20T09:37:58.139Z,15.93
2023-04-20T09:40:30.793Z,14.13
2023-04-20T09:42:59.512Z,20.05
2023-04-20T09:45:26.537Z,12.80
2023-04-20T09:47:53.865Z,12.98
2023-04-20T09:50:28.994Z,14.18
2023-04-20T09:52:56.799Z,17.02
2023-04-20T09:55:24.597Z,19.23
2023-04-20T09:57:52.228Z,18.95
2023-04-20T10:00:19.262Z,16.60
2023-04-20T10:02:48.745Z,15.23
2023-04-20T10:05:16.826Z,17.90
2023-04-20T10:07:44.073Z,13.48
2023-04-20T10:10:15.626Z,15.25
2023-04-20T10:12:56.187Z,12.20
2023-04-20T10:15:24.890Z,11.48
2023-04-20T10:17:51.660Z,11.45
2023-04-20T10:20:19.323Z,10.02
2023-04-20T10:22:46.305Z,10.85
2023-04-20T10:25:18.346Z,11.77
2023-04-20T10:27:56.030Z,9.10
2023-04-20T10:30:24.526Z,8.40
2023-04-20T10:33:11.174Z,7.82
2023-04-20T10:35:51.185Z,7.22
2023-04-20T10:38:35.759Z,9.25
2023-04-20T10:41:12.825Z,7.88
2023-04-20T10:43:43.186Z,11.13
2023-04-20T10:46:21.663Z,8.53
2023-04-20T10:48:51.370Z,12.23
2023-04-20T10:51:19.040Z,6.47
2023-04-20T10:53:49.103Z,7.25
2023-04-20T10:56:15.884Z,6.80
2023-04-20T10:58:45.592Z,6.53
2023-04-20T11:01:12.151Z,7.07
2023-04-20T11:03:39.000Z,8.48
2023-04-20T11:06:06.579Z,6.50
2023-04-20T11:08:40.245Z,8.80
2023-04-20T11:11:18.277Z,9.45
2023-04-20T11:13:44.889Z,7.60
2023-04-20T11:16:16.376Z,8.45
2023-04-20T11:18:55.714Z,7.50
2023-04-20T11:21:22.725Z,9.73
2023-04-20T11:23:50.756Z,7.07
2023-04-20T11:26:18.121Z,8.02
2023-04-20T11:29:00.956Z,7.07
2023-04-20T11:31:28.941Z,5.68
2023-04-20T11:33:55.608Z,5.20
2023-04-20T11:36:23.281Z,7.38
2023-04-20T11:38:50.338Z,10.95
2023-04-20T11:41:17.546Z,5.72
2023-04-20T11:44:16.215Z,5.53
2023-04-20T11:46:55.064Z,5.60
2023-04-20T11:49:22.047Z,4.32
2023-04-20T11:51:48.617Z,6.63
2023-04-20T11:54:16.082Z,7.82
2023-04-20T11:56:42.770Z,7.35
2023-04-20T11:59:10.728Z,8.52
2023-04-20T12:01:37.782Z,9.45
2023-04-20T12:04:04.888Z,5.85
2023-04-20T12:06:34.395Z,4.22
2023-04-20T12:09:01.460Z,5.70
2023-04-20T12:11:28.217Z,5.72
2023-04-20T12:13:54.814Z,7.03
2023-04-20T12:16:21.626Z,4.57
2023-04-20T12:18:48.480Z,4.35
2023-04-20T12:21:15.518Z,5.22
2023-04-20T12:23:43.827Z,5.88
2023-04-20T12:26:10.671Z,5.10
2023-04-20T12:28:37.431Z,6.10
2023-04-20T12:31:04.223Z,5.13
2023-04-20T12:33:31.256Z,5.55
2023-04-20T12:35:57.803Z,6.22
2023-04-20T12:38:24.465Z,5.57
2023-04-20T12:40:51.227Z,5.35
2023-04-20T12:43:17.826Z,5.03
2023-04-20T12:45:44.489Z,5.82
2023-04-20T12:48:11.129Z,4.72
2023-04-20T12:50:37.986Z,5.25
2023-04-20T12:53:06.604Z,3.97
2023-04-20T12:55:33.229Z,5.68
2023-04-20T12:57:59.850Z,5.05
2023-04-20T13:00:26.703Z,4.22
2023-04-20T13:02:56.701Z,4.13
2023-04-20T13:05:23.558Z,6.90
2023-04-20T13:07:50.086Z,5.32
2023-04-20T13:10:17.365Z,4.53
2023-04-20T13:12:43.996Z,4.00
2023-04-20T13:15:11.123Z,4.47
2023-04-20T13:17:37.790Z,4.35
2023-04-20T13:20:05.021Z,4.28
2023-04-20T13:22:31.821Z,6.93
2023-04-20T13:24:58.554Z,5.57
2023-04-20T13:27:25.256Z,5.35
2023-04-20T13:29:52.124Z,5.63
2023-04-20T13:32:19.487Z,5.28
2023-04-20T13:34:49.986Z,5.68
2023-04-20T13:37:16.786Z,5.72
2023-04-20T13:39:43.536Z,8.32
2023-04-20T13:42:10.224Z,6.07
2023-04-20T13:44:37.032Z,5.95
2023-04-20T13:47:03.819Z,5.30
2023-04-20T13:49:31.592Z,6.60
2023-04-20T13:51:58.514Z,6.18
2023-04-20T13:54:28.433Z,5.55
2023-04-20T13:56:55.208Z,6.45
2023-04-20T13:59:21.882Z,7.72
2023-04-20T14:01:48.478Z,6.28
2023-04-20T14:04:16.826Z,5.78
2023-04-20T14:06:43.728Z,6.72
2023-04-20T14:09:10.361Z,5.68
2023-04-20T14:11:36.935Z,5.85
2023-04-20T14:14:03.588Z,5.72
2023-04-20T14:16:51.062Z,9.13
2023-04-20T14:19:17.802Z,5.63
2023-04-20T14:21:46.612Z,5.75
2023-04-20T14:24:13.777Z,5.82
2023-04-20T14:26:41.007Z,10.38
2023-04-20T14:29:07.716Z,7.00
2023-04-20T14:31:34.978Z,5.70
2023-04-20T14:34:01.928Z,9.90
2023-04-20T14:36:28.694Z,6.25
2023-04-20T14:38:55.623Z,8.57
2023-04-20T14:41:22.706Z,9.18
2023-04-20T14:43:49.348Z,7.93
2023-04-20T14:46:16.096Z,6.47
2023-04-20T14:48:46.064Z,7.32
2023-04-20T14:51:13.380Z,7.38
2023-04-20T14:53:39.952Z,7.00
2023-04-20T14:56:08.111Z,6.03
2023-04-20T14:58:35.995Z,5.22
2023-04-20T15:01:03.038Z,9.75
2023-04-20T15:03:29.928Z,8.98
2023-04-20T15:06:00.856Z,7.88
2023-04-20T15:08:27.731Z,5.57
2023-04-20T15:10:56.800Z,8.75
2023-04-20T15:13:24.443Z,7.25
2023-04-20T15:15:54.241Z,5.25
2023-04-20T15:18:21.753Z,6.38
2023-04-20T15:20:52.273Z,7.32
2023-04-20T15:23:19.600Z,10.63
2023-04-20T15:25:46.708Z,10.82
2023-04-20T15:28:13.246Z,12.05
2023-04-20T15:30:40.344Z,12.77
2023-04-20T15:33:07.564Z,12.65
2023-04-20T15:35:35.014Z,9.50
2023-04-20T15:38:10.241Z,11.30
2023-04-20T15:40:38.584Z,9.65
2023-04-20T15:43:05.312Z,11.30
2023-04-20T15:45:32.041Z,9.65
2023-04-20T15:48:00.986Z,10.73
2023-04-20T15:50:27.771Z,8.82
2023-04-20T15:52:54.537Z,11.50
2023-04-20T15:55:21.218Z,7.70
2023-04-20T15:57:47.853Z,9.02
2023-04-20T16:00:15.196Z,11.13
2023-04-20T16:02:41.829Z,11.82
2023-04-20T16:05:09.319Z,15.15
2023-04-20T16:07:35.958Z,10.52
2023-04-20T16:10:03.092Z,12.10
2023-04-20T16:12:29.815Z,12.65
2023-04-20T16:14:57.418Z,12.73
2023-04-20T16:17:24.345Z,12.15
2023-04-20T16:19:51.097Z,11.50
2023-04-20T16:22:17.878Z,13.00
2023-04-20T16:24:44.509Z,14.60
2023-04-20T16:27:11.121Z,12.10
2023-04-20T16:29:37.974Z,10.82
2023-04-20T16:32:05.895Z,8.98
2023-04-20T16:34:32.399Z,10.23
2023-04-20T16:36:59.483Z,8.95
2023-04-20T16:39:26.618Z,8.25
2023-04-20T16:41:53.240Z,11.98
2023-04-20T16:44:20.389Z,9.38
2023-04-20T16:46:51.351Z,8.57
2023-04-20T16:49:18.127Z,8.52
2023-04-20T16:51:44.774Z,9.88
2023-04-20T16:54:12.696Z,8.90
2023-04-20T16:56:40.146Z,9.60
2023-04-20T16:59:06.939Z,8.40
2023-04-20T17:01:33.496Z,9.82
2023-04-20T17:04:00.714Z,7.82
2023-04-20T17:06:27.792Z,8.57
2023-04-20T17:08:57.407Z,8.63
2023-04-20T17:11:24.131Z,12.27
2023-04-20T17:13:50.786Z,6.38
2023-04-20T17:16:17.459Z,10.65
2023-04-20T17:18:44.064Z,9.40
2023-04-20T17:21:10.619Z,8.00
2023-04-20T17:23:37.238Z,10.68
2023-04-20T17:26:07.388Z,8.27
2023-04-20T17:28:33.866Z,11.27
2023-04-20T17:31:00.490Z,9.65
2023-04-20T17:33:27.110Z,10.20
2023-04-20T17:35:55.125Z,9.60
2023-04-20T17:38:21.808Z,9.57
2023-04-20T17:40:48.368Z,7.50
2023-04-20T17:43:14.959Z,8.93
2023-04-20T17:45:41.562Z,9.10
2023-04-20T17:48:08.894Z,8.45
2023-04-20T17:50:35.791Z,12.23
2023-04-20T17:53:06.880Z,9.25
2023-04-20T17:58:01.034Z,10.80
2023-04-20T18:00:27.636Z,5.82
2023-04-20T18:02:54.580Z,8.55
2023-04-20T18:05:21.434Z,8.13
2023-04-20T18:07:48.120Z,8.68
2023-04-20T18:10:15.638Z,9.25
2023-04-20T18:12:43.007Z,11.05
2023-04-20T18:15:10.066Z,11.95
2023-04-20T18:17:36.819Z,11.50
2023-04-20T18:20:07.967Z,9.98
2023-04-20T18:22:37.746Z,10.65
2023-04-20T18:25:04.733Z,9.02
2023-04-20T18:27:31.367Z,7.32
2023-04-20T18:30:03.983Z,13.23
2023-04-20T18:32:31.331Z,7.30
2023-04-20T18:34:59.160Z,7.93
2023-04-20T18:37:26.270Z,8.20
2023-04-20T18:39:52.807Z,8.35
2023-04-20T18:42:19.380Z,8.50
2023-04-20T18:44:46.352Z,10.25
2023-04-20T18:47:13.084Z,9.38
2023-04-20T18:49:39.740Z,10.05
2023-04-20T18:52:06.355Z,8.57
2023-04-20T18:54:33.014Z,12.38
2023-04-20T18:56:59.589Z,12.65
2023-04-20T18:59:26.214Z,7.55
2023-04-20T19:01:53.047Z,7.43
2023-04-20T19:04:21.010Z,9.85
2023-04-20T19:06:47.874Z,9.98
2023-04-20T19:09:14.761Z,11.13
2023-04-20T19:11:41.308Z,9.15
2023-04-20T19:14:07.920Z,10.68
2023-04-20T19:16:35.881Z,12.68
2023-04-20T19:19:03.865Z,10.02
2023-04-20T19:21:32.393Z,9.00
2023-04-20T19:23:59.497Z,12.40
2023-04-20T19:26:26.211Z,10.38
2023-04-20T19:28:53.417Z,10.40
2023-04-20T19:31:20.215Z,10.50
2023-04-20T19:33:48.068Z,10.95
2023-04-20T19:36:14.648Z,8.82
2023-04-20T19:38:41.492Z,11.88
2023-04-20T19:41:08.182Z,12.88
2023-04-20T19:43:36.467Z,11.43
2023-04-20T19:46:03.928Z,10.20
2023-04-20T19:48:37.366Z,12.82
2023-04-20T19:51:05.709Z,11.65
2023-04-20T19:53:32.747Z,12.45
2023-04-20T19:55:59.297Z,11.60
2023-04-20T19:58:25.857Z,13.02
2023-04-20T20:00:52.529Z,12.98
2023-04-20T20:03:51.937Z,11.38
2023-04-20T20:06:19.574Z,11.45
2023-04-20T20:08:46.256Z,13.20
2023-04-20T20:11:12.830Z,13.50
2023-04-20T20:13:40.120Z,13.90
2023-04-20T20:16:06.785Z,15.15
2023-04-20T20:18:33.416Z,14.75
2023-04-20T20:21:00.226Z,14.20
2023-04-20T20:23:27.204Z,16.67
2023-04-20T20:25:54.120Z,15.27
2023-04-20T20:28:20.717Z,15.88
2023-04-20T20:30:47.609Z,21.63
2023-04-20T20:33:15.071Z,20.20
2023-04-20T20:35:43.621Z,19.00
2023-04-20T20:38:10.986Z,19.63
2023-04-20T20:40:39.866Z,21.60
2023-04-20T20:43:06.704Z,21.90
2023-04-20T20:45:33.480Z,21.70
2023-04-20T20:48:00.858Z,21.92
2023-04-20T20:50:27.891Z,21.00
2023-04-20T20:52:54.813Z,21.10
2023-04-20T20:55:22.427Z,25.60
2023-04-20T20:57:49.193Z,21.42
2023-04-20T21:00:16.060Z,26.42
2023-04-20T21:02:43.028Z,24.70
2023-04-20T21:05:09.848Z,30.67
2023-04-20T21:07:36.600Z,29.20
2023-04-20T21:10:03.710Z,27.50
2023-04-20T21:12:30.709Z,29.25
2023-04-20T21:14:57.314Z,36.80
2023-04-20T21:17:24.382Z,32.70
2023-04-20T21:19:51.244Z,35.58
2023-04-20T21:22:17.906Z,38.05
2023-04-20T21:24:45.573Z,41.35
2023-04-20T21:27:12.959Z,43.65
2023-04-20T21:29:39.598Z,48.85
2023-04-20T21:32:06.210Z,47.00
2023-04-20T21:34:33.646Z,49.28
2023-04-20T21:37:04.142Z,53.25
2023-04-20T21:39:31.556Z,49.27
2023-04-20T21:41:59.519Z,55.55
2023-04-20T21:44:26.356Z,59.97
2023-04-20T21:46:52.911Z,55.30
2023-04-20T21:49:19.812Z,55.80
2023-04-20T21:51:46.667Z,58.38
2023-04-20T21:54:13.333Z,56.80
2023-04-20T21:56:39.964Z,66.40
2023-04-20T21:59:06.530Z,66.13
2023-04-20T22:01:33.113Z,67.38
2023-04-20T22:03:59.951Z,66.20
2023-04-20T22:06:26.959Z,67.53
2023-04-20T22:08:53.528Z,69.72
2023-04-20T22:11:21.417Z,71.80
2023-04-20T22:13:48.342Z,66.78
2023-04-20T22:16:15.343Z,79.13
2023-04-20T22:18:42.208Z,76.93
2023-04-20T22:21:08.939Z,80.45
2023-04-20T22:23:35.756Z,75.63
2023-04-20T22:26:03.239Z,80.25
2023-04-20T22:28:29.871Z,80.97
2023-04-20T22:30:57.064Z,75.07
2023-04-20T22:33:23.659Z,85.63
2023-04-20T22:35:51.265Z,80.97
2023-04-20T22:38:26.763Z,77.25
2023-04-20T22:40:53.960Z,80.70
2023-04-20T22:43:21.543Z,83.25
2023-04-20T22:45:48.730Z,88.18
2023-04-20T22:48:16.061Z,85.88
2023-04-20T22:50:42.802Z,91.28
2023-04-20T22:53:09.498Z,85.40
2023-04-20T22:55:36.043Z,89.88
2023-04-20T22:58:02.597Z,85.95
2023-04-20T23:00:29.341Z,96.65
2023-04-20T23:02:56.099Z,96.25
2023-04-20T23:05:22.943Z,96.68
2023-04-20T23:07:54.780Z,96.13
2023-04-20T23:10:28.844Z,99.82
2023-04-20T23:12:56.020Z,103.03
2023-04-20T23:15:23.658Z,108.80
2023-04-20T23:17:50.934Z,98.35
2023-04-20T23:20:18.242Z,99.80
2023-04-20T23:22:45.008Z,102.88
2023-04-20T23:25:11.669Z,103.05
2023-04-20T23:27:38.302Z,104.35
2023-04-20T23:30:06.536Z,108.10
2023-04-20T23:32:33.155Z,100.32
2023-04-20T23:34:59.810Z,106.10
2023-04-20T23:37:26.586Z,104.32
2023-04-20T23:39:53.424Z,104.30
2023-04-20T23:42:20.179Z,109.22
2023-04-20T23:44:46.837Z,108.63
2023-04-20T23:47:15.437Z,105.97
2023-04-20T23:49:42.051Z,108.70
2023-04-20T23:52:08.621Z,113.53
2023-04-20T23:54:35.263Z,122.88
2023-04-20T23:57:02.722Z,114.25
2023-04-20T23:59:29.359Z,116.47
